createdAt,value
2019-06-07T00:00:33.279Z,7.88
2019-06-07T00:02:47.769Z,7.85
2019-06-07T00:05:18.646Z,7.81
2019-06-07T00:07:43.926Z,7.79
2019-06-07T00:10:14.453Z,7.78
2019-06-07T00:12:40.010Z,7.74
2019-06-07T00:15:14.309Z,7.66
2019-06-07T00:17:35.828Z,7.56
2019-06-07T00:20:03.157Z,7.45
2019-06-07T00:22:33.272Z,7.49
2019-06-07T00:24:59.304Z,7.57
2019-06-07T00:27:26.351Z,7.63
2019-06-07T00:29:53.708Z,7.54
2019-06-07T00:32:22.002Z,7.48
2019-06-07T00:34:49.490Z,7.48
2019-06-07T00:37:19.768Z,7.46
2019-06-07T00:39:45.774Z,7.55
2019-06-07T00:42:16.713Z,7.62
2019-06-07T00:44:42.802Z,7.67
2019-06-07T00:47:10.673Z,7.69
2019-06-07T00:49:41.452Z,7.60
2019-06-07T00:52:07.052Z,7.52
2019-06-07T00:54:34.131Z,7.42
2019-06-07T00:57:01.481Z,7.35
2019-06-07T00:59:29.763Z,7.28
2019-06-07T01:01:57.214Z,7.20
2019-06-07T01:04:26.683Z,7.17
2019-06-07T01:06:53.097Z,7.16
2019-06-07T01:09:22.431Z,7.13
2019-06-07T01:11:48.887Z,7.09
2019-06-07T01:14:21.454Z,7.12
2019-06-07T01:16:57.235Z,7.18
2019-06-07T01:19:14.164Z,7.28
2019-06-07T01:21:41.213Z,7.47
2019-06-07T01:24:12.331Z,7.60
2019-06-07T01:26:37.364Z,7.72
2019-06-07T01:29:04.830Z,7.87
2019-06-07T01:31:32.147Z,8.03
2019-06-07T01:33:59.452Z,8.10
2019-06-07T01:36:29.569Z,8.10
2019-06-07T01:38:55.338Z,8.19
2019-06-07T01:41:25.416Z,8.23
2019-06-07T01:43:51.141Z,8.20
2019-06-07T01:46:18.496Z,8.21
2019-06-07T01:48:49.544Z,8.22
2019-06-07T01:51:14.790Z,8.18
2019-06-07T01:53:42.090Z,8.20
2019-06-07T01:56:10.118Z,8.21
2019-06-07T01:58:37.532Z,8.21
2019-06-07T02:01:04.587Z,8.17
2019-06-07T02:03:33.099Z,8.16
2019-06-07T02:06:00.658Z,8.07
2019-06-07T02:08:34.070Z,8.03
2019-06-07T02:10:56.735Z,8.02
2019-06-07T02:13:27.405Z,8.07
2019-06-07T02:15:52.526Z,8.10
2019-06-07T02:18:21.815Z,8.15
2019-06-07T02:20:48.632Z,8.20
2019-06-07T02:23:15.676Z,8.17
2019-06-07T02:25:50.039Z,8.16
2019-06-07T02:28:27.650Z,8.15
2019-06-07T02:30:50.545Z,8.17
2019-06-07T02:33:09.345Z,8.13
2019-06-07T02:35:40.233Z,8.10
2019-06-07T02:38:05.759Z,8.12
2019-06-07T02:40:37.268Z,8.11
2019-06-07T02:43:01.561Z,8.18
2019-06-07T02:45:32.885Z,8.15
2019-06-07T02:47:57.936Z,8.16
2019-06-07T02:50:26.235Z,8.17
2019-06-07T02:52:54.052Z,8.14
2019-06-07T02:55:21.099Z,8.09
2019-06-07T02:57:48.530Z,8.01
2019-06-07T03:00:41.493Z,7.91
2019-06-07T03:02:44.752Z,7.90
2019-06-07T03:05:11.774Z,7.93
2019-06-07T03:07:44.544Z,7.95
2019-06-07T03:10:08.113Z,7.95
2019-06-07T03:12:35.615Z,7.95
2019-06-07T03:15:02.603Z,7.97
2019-06-07T03:17:34.688Z,8.00
2019-06-07T03:19:59.544Z,7.99
2019-06-07T03:22:26.785Z,8.02
2019-06-07T03:24:54.101Z,8.08
2019-06-07T03:27:48.861Z,8.14
2019-06-07T03:29:50.170Z,8.25
2019-06-07T03:32:17.312Z,8.49
2019-06-07T03:34:44.365Z,8.81
2019-06-07T03:37:11.690Z,9.16
2019-06-07T03:39:40.955Z,9.49
2019-06-07T03:42:11.748Z,9.69
2019-06-07T03:44:41.561Z,9.74
2019-06-07T03:47:08.516Z,9.85
2019-06-07T03:49:39.408Z,9.84
2019-06-07T03:52:04.320Z,9.61
2019-06-07T03:54:32.074Z,9.47
2019-06-07T03:56:59.751Z,9.36
2019-06-07T03:59:28.431Z,9.29
2019-06-07T04:01:55.790Z,9.21
2019-06-07T04:04:22.828Z,9.17
2019-06-07T04:06:49.949Z,9.15
2019-06-07T04:09:17.244Z,9.14
2019-06-07T04:11:44.598Z,9.04
2019-06-07T04:14:11.649Z,9.00
2019-06-07T04:16:44.164Z,9.02
2019-06-07T04:19:07.449Z,9.05
2019-06-07T04:21:40.360Z,9.05
2019-06-07T04:24:04.551Z,9.05
2019-06-07T04:26:34.440Z,9.14
2019-06-07T04:29:32.400Z,9.19
2019-06-07T04:31:32.168Z,9.12
2019-06-07T04:33:58.889Z,9.16
2019-06-07T04:36:41.818Z,9.18
2019-06-07T04:38:55.341Z,9.18
2019-06-07T04:41:22.388Z,10.13
2019-06-07T04:43:49.451Z,11.54
2019-06-07T04:46:16.789Z,12.74
2019-06-07T04:48:44.176Z,13.82
2019-06-07T04:51:11.505Z,14.69
2019-06-07T04:53:43.468Z,15.41
2019-06-07T04:56:10.921Z,16.04
2019-06-07T04:58:41.343Z,16.62
2019-06-07T05:01:26.350Z,16.83
2019-06-07T05:03:40.808Z,17.16
2019-06-07T05:06:05.933Z,17.34
2019-06-07T05:08:36.135Z,17.54
2019-06-07T05:11:03.089Z,17.48
2019-06-07T05:13:31.424Z,18.13
2019-06-07T05:15:58.849Z,18.41
2019-06-07T05:18:26.165Z,18.59
2019-06-07T05:20:53.460Z,19.00
2019-06-07T05:24:00.159Z,19.64
2019-06-07T05:25:49.503Z,19.17
2019-06-07T05:28:16.878Z,19.40
2019-06-07T05:31:03.714Z,18.94
2019-06-07T05:33:13.011Z,18.84
2019-06-07T05:35:42.899Z,18.70
2019-06-07T05:38:08.807Z,18.53
2019-06-07T05:40:38.729Z,18.52
2019-06-07T05:43:05.045Z,18.63
2019-06-07T05:45:32.509Z,18.95
2019-06-07T05:48:00.465Z,19.08
2019-06-07T05:50:41.501Z,19.28
2019-06-07T05:52:58.030Z,19.36
2019-06-07T05:55:25.367Z,19.35
2019-06-07T05:57:52.714Z,19.45
2019-06-07T06:00:19.780Z,19.11
2019-06-07T06:03:03.621Z,18.80
2019-06-07T06:05:32.609Z,19.05
2019-06-07T06:07:50.556Z,18.75
2019-06-07T06:10:14.411Z,19.22
2019-06-07T06:12:46.130Z,19.07
2019-06-07T06:15:10.590Z,19.23
2019-06-07T06:17:42.683Z,19.14
2019-06-07T06:20:06.657Z,19.03
2019-06-07T06:22:33.693Z,18.57
2019-06-07T06:25:30.999Z,18.98
2019-06-07T06:28:03.280Z,19.02
2019-06-07T06:29:58.532Z,19.04
2019-06-07T06:32:46.647Z,19.37
2019-06-07T06:34:55.894Z,19.09
2019-06-07T06:37:23.221Z,18.66
2019-06-07T06:39:50.374Z,18.58
2019-06-07T06:42:17.398Z,18.59
2019-06-07T06:44:47.105Z,18.73
2019-06-07T06:47:13.525Z,18.45
2019-06-07T06:49:41.721Z,18.71
2019-06-07T06:52:09.316Z,18.37
2019-06-07T06:54:43.085Z,18.10
2019-06-07T06:57:19.222Z,18.74
2019-06-07T06:59:39.285Z,18.76
2019-06-07T07:02:02.845Z,19.09
2019-06-07T07:04:30.154Z,19.21
2019-06-07T07:06:57.190Z,19.02
2019-06-07T07:09:24.243Z,19.33
2019-06-07T07:12:08.854Z,19.59
2019-06-07T07:14:20.031Z,19.40
2019-06-07T07:16:51.939Z,19.36
2019-06-07T07:19:15.845Z,19.49
2019-06-07T07:21:45.835Z,19.59
2019-06-07T07:24:21.746Z,19.22
2019-06-07T07:26:42.960Z,18.95
2019-06-07T07:29:09.465Z,19.44
2019-06-07T07:31:36.518Z,19.41
2019-06-07T07:36:39.384Z,19.53
2019-06-07T07:39:05.005Z,19.16
2019-06-07T07:41:31.122Z,18.71
2019-06-07T07:44:05.800Z,18.66
2019-06-07T07:46:29.463Z,19.41
2019-06-07T07:48:56.268Z,19.71
2019-06-07T07:51:23.379Z,19.57
2019-06-07T07:54:02.158Z,19.44
2019-06-07T07:56:20.476Z,19.33
2019-06-07T07:58:51.171Z,19.47
2019-06-07T08:01:16.262Z,19.80
2019-06-07T08:03:43.297Z,19.65
2019-06-07T08:06:10.619Z,19.89
2019-06-07T08:08:37.649Z,19.75
2019-06-07T08:11:04.706Z,20.17
2019-06-07T08:13:31.743Z,20.13
2019-06-07T08:16:06.228Z,20.52
2019-06-07T08:18:27.850Z,20.63
2019-06-07T08:21:15.380Z,20.68
2019-06-07T08:23:23.647Z,20.82
2019-06-07T08:25:52.710Z,21.34
2019-06-07T08:28:19.450Z,21.02
2019-06-07T08:30:52.207Z,21.07
2019-06-07T08:33:26.139Z,20.67
2019-06-07T08:36:06.044Z,20.20
2019-06-07T08:38:26.015Z,20.20
2019-06-07T08:40:42.332Z,20.37
2019-06-07T08:43:19.509Z,20.31
2019-06-07T08:45:38.455Z,20.46
2019-06-07T08:48:26.649Z,20.27
2019-06-07T08:50:34.795Z,19.95
2019-06-07T08:53:11.437Z,20.49
2019-06-07T08:55:30.594Z,20.71
2019-06-07T08:58:04.229Z,20.52
2019-06-07T09:00:45.143Z,20.18
2019-06-07T09:03:00.930Z,20.42
2019-06-07T09:05:24.463Z,20.45
2019-06-07T09:08:13.483Z,20.47
2019-06-07T09:10:20.899Z,20.41
2019-06-07T09:12:47.959Z,20.42
2019-06-07T09:15:23.176Z,20.76
2019-06-07T09:18:29.774Z,20.83
2019-06-07T09:20:35.261Z,20.89
2019-06-07T09:22:41.520Z,20.99
2019-06-07T09:25:20.045Z,21.26
2019-06-07T09:27:37.312Z,21.42
2019-06-07T09:30:11.746Z,21.63
2019-06-07T09:32:33.119Z,21.62
2019-06-07T09:35:07.343Z,21.55
2019-06-07T09:40:09.688Z,21.50
2019-06-07T09:42:28.263Z,21.66
2019-06-07T09:44:57.351Z,21.64
2019-06-07T09:47:32.526Z,21.99
2019-06-07T09:49:53.132Z,21.92
2019-06-07T09:52:20.492Z,21.89
2019-06-07T09:55:09.322Z,22.14
2019-06-07T09:57:17.888Z,21.63
2019-06-07T09:59:45.478Z,21.91
2019-06-07T10:02:13.983Z,22.26
2019-06-07T10:04:41.033Z,22.25
2019-06-07T10:07:28.140Z,22.30
2019-06-07T10:12:06.681Z,22.24
2019-06-07T10:14:33.726Z,22.79
2019-06-07T10:17:01.091Z,23.02
2019-06-07T10:19:28.128Z,22.77
2019-06-07T10:21:55.501Z,22.64
2019-06-07T10:24:22.542Z,22.58
2019-06-07T10:26:49.896Z,22.80
2019-06-07T10:29:16.965Z,22.80
2019-06-07T10:31:44.000Z,22.86
2019-06-07T10:34:11.050Z,23.18
2019-06-07T10:36:38.120Z,22.97
2019-06-07T10:39:06.867Z,22.97
2019-06-07T10:41:34.084Z,22.89
2019-06-07T10:44:01.481Z,22.65
2019-06-07T10:46:28.840Z,22.84
2019-06-07T10:48:56.223Z,22.92
2019-06-07T10:51:24.390Z,22.98
2019-06-07T10:53:51.723Z,22.69
2019-06-07T10:56:18.763Z,23.17
2019-06-07T10:58:46.087Z,23.15
2019-06-07T11:01:14.395Z,23.49
2019-06-07T11:03:41.915Z,23.64
2019-06-07T11:06:10.119Z,24.00
2019-06-07T11:08:38.255Z,24.40
2019-06-07T11:11:05.983Z,24.41
2019-06-07T11:13:33.063Z,24.16
2019-06-07T11:16:00.124Z,23.67
2019-06-07T11:18:27.406Z,24.12
2019-06-07T11:20:54.688Z,25.04
2019-06-07T11:23:21.982Z,25.03
2019-06-07T11:25:49.261Z,25.25
2019-06-07T11:28:16.319Z,24.93
2019-06-07T11:30:44.594Z,25.26
2019-06-07T11:33:13.301Z,25.78
2019-06-07T11:35:40.771Z,26.56
2019-06-07T11:38:08.316Z,26.69
2019-06-07T11:40:36.141Z,27.09
2019-06-07T11:43:03.316Z,27.24
2019-06-07T11:45:30.345Z,27.21
2019-06-07T11:47:59.851Z,26.36
2019-06-07T11:50:26.496Z,25.92
2019-06-07T11:52:53.550Z,26.09
2019-06-07T11:55:20.982Z,26.65
2019-06-07T11:57:48.007Z,26.65
2019-06-07T12:00:16.449Z,26.48
2019-06-07T12:02:44.351Z,26.92
2019-06-07T12:05:15.334Z,27.25
2019-06-07T12:07:40.138Z,27.67
2019-06-07T12:10:08.443Z,27.84
2019-06-07T12:12:37.121Z,27.64
2019-06-07T12:15:04.509Z,27.89
2019-06-07T12:17:31.833Z,28.33
2019-06-07T12:22:31.995Z,27.97
2019-06-07T12:24:59.322Z,28.71
2019-06-07T12:27:26.368Z,28.88
2019-06-07T12:29:53.424Z,28.68
2019-06-07T12:32:21.575Z,29.21
2019-06-07T12:34:49.084Z,29.58
2019-06-07T12:37:19.324Z,29.55
2019-06-07T12:39:45.505Z,29.90
2019-06-07T12:42:12.860Z,29.17
2019-06-07T12:44:40.214Z,28.24
2019-06-07T12:47:07.570Z,27.56
2019-06-07T12:49:34.928Z,27.21
2019-06-07T12:52:01.980Z,26.77
2019-06-07T12:54:29.029Z,26.44
2019-06-07T12:56:56.097Z,26.24
2019-06-07T12:59:24.290Z,25.99
2019-06-07T13:01:51.801Z,25.90
2019-06-07T13:04:18.854Z,25.75
2019-06-07T13:06:46.226Z,25.63
2019-06-07T13:09:13.285Z,25.60
2019-06-07T13:11:40.606Z,25.54
2019-06-07T13:14:07.658Z,25.50
2019-06-07T13:16:35.010Z,25.46
2019-06-07T13:19:02.391Z,25.48
2019-06-07T13:21:29.435Z,25.57
2019-06-07T13:23:56.760Z,25.63
2019-06-07T13:26:25.050Z,25.54
2019-06-07T13:28:52.185Z,25.59
2019-06-07T13:31:20.952Z,25.59
2019-06-07T13:33:48.568Z,25.49
2019-06-07T13:36:16.040Z,25.56
2019-06-07T13:38:43.431Z,25.59
2019-06-07T13:41:10.543Z,25.55
2019-06-07T13:43:37.603Z,25.39
2019-06-07T13:46:04.642Z,25.36
2019-06-07T13:48:32.058Z,25.25
2019-06-07T13:50:59.132Z,25.13
2019-06-07T13:53:26.489Z,25.14
2019-06-07T13:55:53.831Z,25.23
2019-06-07T13:58:22.531Z,25.24
2019-06-07T14:00:49.726Z,25.21
2019-06-07T14:03:20.718Z,25.23
2019-06-07T14:05:45.898Z,25.27
2019-06-07T14:08:13.352Z,25.44
2019-06-07T14:10:40.331Z,25.47
2019-06-07T14:13:07.616Z,25.44
2019-06-07T14:15:34.701Z,25.43
2019-06-07T14:18:02.988Z,25.41
2019-06-07T14:20:34.120Z,25.45
2019-06-07T14:22:59.434Z,25.54
2019-06-07T14:25:27.307Z,25.62
2019-06-07T14:27:54.555Z,25.64
2019-06-07T14:30:21.852Z,25.61
2019-06-07T14:32:49.366Z,25.67
2019-06-07T14:35:16.419Z,25.63
2019-06-07T14:37:43.463Z,25.62
2019-06-07T14:40:10.517Z,25.66
2019-06-07T14:42:37.556Z,25.62
2019-06-07T14:45:06.019Z,25.64
2019-06-07T14:47:34.169Z,25.63
2019-06-07T14:50:01.298Z,25.72
2019-06-07T14:52:28.930Z,25.71
2019-06-07T14:54:56.289Z,25.62
2019-06-07T14:57:25.025Z,25.66
2019-06-07T14:59:52.532Z,25.67
2019-06-07T15:02:19.570Z,25.71
2019-06-07T15:04:46.611Z,25.80
2019-06-07T15:07:13.977Z,25.86
2019-06-07T15:09:41.330Z,25.90
2019-06-07T15:12:23.923Z,25.87
2019-06-07T15:14:37.653Z,25.95
2019-06-07T15:17:06.175Z,25.96
2019-06-07T15:19:34.537Z,25.99
2019-06-07T15:22:02.305Z,26.05
2019-06-07T15:24:32.655Z,26.01
2019-06-07T15:26:58.085Z,25.99
2019-06-07T15:29:25.126Z,25.92
2019-06-07T15:31:52.181Z,25.95
2019-06-07T15:34:19.495Z,25.92
2019-06-07T15:36:46.845Z,25.90
2019-06-07T15:39:14.214Z,25.92
2019-06-07T15:41:41.560Z,25.96
2019-06-07T15:44:08.602Z,26.04
2019-06-07T15:46:35.976Z,26.06
2019-06-07T15:49:03.038Z,26.12
2019-06-07T15:51:34.542Z,26.14
2019-06-07T15:54:13.290Z,26.15
2019-06-07T15:56:47.502Z,26.16
2019-06-07T15:59:15.741Z,26.15
2019-06-07T16:04:25.211Z,26.19
2019-06-07T16:06:57.412Z,26.14
2019-06-07T16:09:34.550Z,26.12
2019-06-07T16:12:01.617Z,26.15
2019-06-07T16:14:28.673Z,26.07
2019-06-07T16:16:59.002Z,26.09
2019-06-07T16:19:27.250Z,26.12
2019-06-07T16:21:55.438Z,26.11
2019-06-07T16:24:29.841Z,26.06
2019-06-07T16:26:58.195Z,26.05
2019-06-07T16:29:27.426Z,26.05
2019-06-07T16:31:55.633Z,26.08
2019-06-07T16:34:32.681Z,26.06
2019-06-07T16:36:59.742Z,26.03
2019-06-07T16:39:29.113Z,25.98
2019-06-07T16:41:56.453Z,25.96
2019-06-07T16:44:23.504Z,25.94
2019-06-07T16:46:50.571Z,25.92
2019-06-07T16:49:18.626Z,25.90
2019-06-07T16:51:49.401Z,25.90
2019-06-07T16:54:17.869Z,25.89
2019-06-07T16:56:49.806Z,25.90
2019-06-07T16:59:25.358Z,25.87
2019-06-07T17:01:54.404Z,25.83
2019-06-07T17:04:21.634Z,25.80
2019-06-07T17:06:48.702Z,25.82
2019-06-07T17:09:15.943Z,25.83
2019-06-07T17:11:46.306Z,25.81
2019-06-07T17:14:21.898Z,25.75
2019-06-07T17:16:50.298Z,25.64
2019-06-07T17:19:24.391Z,25.53
2019-06-07T17:21:52.839Z,25.43
2019-06-07T17:27:08.869Z,25.06
2019-06-07T17:29:36.922Z,24.80
2019-06-07T17:32:05.182Z,24.62
2019-06-07T17:39:46.862Z,22.22
2019-06-07T17:42:14.247Z,20.23
2019-06-07T17:44:45.008Z,18.77
2019-06-07T17:47:15.009Z,17.82
2019-06-07T17:49:45.817Z,17.54
2019-06-07T17:52:13.079Z,17.36
2019-06-07T18:00:27.640Z,17.50
2019-06-07T18:02:36.705Z,17.54
2019-06-07T18:05:05.198Z,17.52
2019-06-07T18:07:33.811Z,17.44
2019-06-07T18:10:03.315Z,17.34
2019-06-07T18:12:30.413Z,17.21
2019-06-07T18:15:10.107Z,16.95
2019-06-07T18:17:38.595Z,16.80
2019-06-07T18:20:07.912Z,16.55
2019-06-07T18:22:39.221Z,16.26
2019-06-07T18:25:15.632Z,16.13
2019-06-07T18:27:43.824Z,15.93
2019-06-07T18:30:20.071Z,15.73
2019-06-07T18:32:48.763Z,15.35
2019-06-07T18:35:16.697Z,14.86
2019-06-07T18:37:43.753Z,14.39
2019-06-07T18:40:12.228Z,14.11
2019-06-07T18:42:40.012Z,13.88
2019-06-07T18:45:08.595Z,13.78
2019-06-07T18:47:42.797Z,13.59
2019-06-07T18:50:11.382Z,13.46
2019-06-07T18:52:38.556Z,13.31
2019-06-07T18:55:07.108Z,13.18
2019-06-07T18:57:34.289Z,13.16
2019-06-07T19:00:01.944Z,13.13
2019-06-07T19:02:30.233Z,13.09
2019-06-07T19:05:00.470Z,13.04
2019-06-07T19:07:28.395Z,13.03
2019-06-07T19:09:57.007Z,13.00
2019-06-07T19:12:26.204Z,12.95
2019-06-07T19:14:55.586Z,12.90
2019-06-07T19:17:23.445Z,12.85
2019-06-07T19:22:29.061Z,12.76
2019-06-07T19:25:01.184Z,12.72
2019-06-07T19:27:28.915Z,12.74
2019-06-07T19:29:56.792Z,12.71
2019-06-07T19:32:23.988Z,12.65
2019-06-07T19:34:51.221Z,12.60
2019-06-07T19:37:27.410Z,12.59
2019-06-07T19:39:55.890Z,12.60
2019-06-07T19:42:24.156Z,12.63
2019-06-07T19:44:55.374Z,12.60
2019-06-07T19:47:31.161Z,12.58
2019-06-07T19:49:59.352Z,12.51
2019-06-07T19:52:27.785Z,12.53
2019-06-07T19:55:01.756Z,12.54
2019-06-07T19:57:35.449Z,12.55
2019-06-07T20:00:13.138Z,12.50
2019-06-07T20:02:35.435Z,12.51
2019-06-07T20:05:06.800Z,12.53
2019-06-07T20:07:50.609Z,12.59
2019-06-07T20:10:19.870Z,12.59
2019-06-07T20:12:47.809Z,12.57
2019-06-07T20:17:53.000Z,12.61
2019-06-07T20:20:24.911Z,12.65
2019-06-07T20:22:52.789Z,12.71
2019-06-07T20:25:23.430Z,12.73
2019-06-07T20:27:50.596Z,12.74
2019-06-07T20:30:18.137Z,12.74
2019-06-07T20:32:47.351Z,12.78
2019-06-07T20:35:18.004Z,12.79
2019-06-07T20:37:50.365Z,12.84
2019-06-07T20:40:24.306Z,12.85
2019-06-07T20:42:46.501Z,12.83
2019-06-07T20:45:14.687Z,12.79
2019-06-07T20:47:50.055Z,12.81
2019-06-07T20:50:21.378Z,12.83
2019-06-07T20:52:48.613Z,12.82
2019-06-07T20:55:20.862Z,12.82
2019-06-07T20:57:55.500Z,12.85
2019-06-07T21:00:22.839Z,12.86
2019-06-07T21:02:49.850Z,12.82
2019-06-07T21:05:16.908Z,12.85
2019-06-07T21:07:43.942Z,12.86
2019-06-07T21:10:11.426Z,12.86
2019-06-07T21:12:38.692Z,12.91
2019-06-07T21:15:09.873Z,12.95
2019-06-07T21:17:37.465Z,13.01
2019-06-07T21:20:06.038Z,13.06
2019-06-07T21:22:33.357Z,13.06
2019-06-07T21:25:00.882Z,13.04
2019-06-07T21:27:28.455Z,13.03
2019-06-07T21:29:56.937Z,13.03
2019-06-07T21:32:23.974Z,13.03
2019-06-07T21:34:51.036Z,13.03
2019-06-07T21:37:18.388Z,13.04
2019-06-07T21:39:45.438Z,13.02
2019-06-07T21:42:12.804Z,13.03
2019-06-07T21:44:40.147Z,13.08
2019-06-07T21:47:07.181Z,13.10
2019-06-07T21:49:34.229Z,13.06
2019-06-07T21:52:02.480Z,13.04
2019-06-07T21:54:30.769Z,12.97
2019-06-07T21:56:58.167Z,12.96
2019-06-07T21:59:25.204Z,12.96
2019-06-07T22:01:52.553Z,12.99
2019-06-07T22:04:19.850Z,12.94
2019-06-07T22:06:47.283Z,12.97
2019-06-07T22:09:14.773Z,12.94
2019-06-07T22:11:42.138Z,12.90
2019-06-07T22:14:10.447Z,12.86
2019-06-07T22:16:37.588Z,12.84
2019-06-07T22:19:04.629Z,12.86
2019-06-07T22:21:32.006Z,12.85
2019-06-07T22:23:59.390Z,12.83
2019-06-07T22:26:26.438Z,12.85
2019-06-07T22:28:53.768Z,12.87
2019-06-07T22:31:21.122Z,12.84
2019-06-07T22:33:48.161Z,12.86
2019-06-07T22:36:16.014Z,12.86
2019-06-07T22:38:43.168Z,12.88
2019-06-07T22:41:12.216Z,12.86
2019-06-07T22:43:38.952Z,12.87
2019-06-07T22:46:06.733Z,12.85
2019-06-07T22:48:34.594Z,12.86
2019-06-07T22:51:01.679Z,12.90
2019-06-07T22:53:28.723Z,12.91
2019-06-07T22:55:56.020Z,12.97
2019-06-07T22:58:23.059Z,12.99
2019-06-07T23:00:50.377Z,13.02
2019-06-07T23:03:19.060Z,12.99
2019-06-07T23:05:46.138Z,13.04
2019-06-07T23:08:13.177Z,13.06
2019-06-07T23:10:40.225Z,13.07
2019-06-07T23:13:07.260Z,13.09
2019-06-07T23:15:34.316Z,13.10
2019-06-07T23:18:01.688Z,13.08
2019-06-07T23:20:29.057Z,13.11
2019-06-07T23:22:56.105Z,13.09
2019-06-07T23:25:24.628Z,13.06
2019-06-07T23:27:51.979Z,13.07
2019-06-07T23:30:19.016Z,13.11
2019-06-07T23:32:46.075Z,13.08
2019-06-07T23:35:13.109Z,13.05
2019-06-07T23:37:40.425Z,12.91
2019-06-07T23:40:07.700Z,12.80
2019-06-07T23:42:35.035Z,12.68
2019-06-07T23:45:02.072Z,12.61
2019-06-07T23:47:29.289Z,12.56
2019-06-07T23:50:13.911Z,12.49
2019-06-07T23:52:40.958Z,12.45
2019-06-07T23:55:07.992Z,12.46
2019-06-07T23:57:35.040Z,12.48
